createdAt,value
2023-02-09T00:01:36.491Z,99.90
2023-02-09T00:04:03.189Z,99.90
2023-02-09T00:06:30.285Z,99.90
2023-02-09T00:08:58.106Z,99.90
2023-02-09T00:11:48.557Z,99.90
2023-02-09T00:14:18.208Z,99.90
2023-02-09T00:16:46.497Z,99.90
2023-02-09T00:19:13.572Z,99.90
2023-02-09T00:21:40.872Z,99.90
2023-02-09T00:24:08.311Z,99.90
2023-02-09T00:26:34.984Z,99.90
2023-02-09T00:29:02.094Z,99.90
2023-02-09T00:31:29.271Z,99.90
2023-02-09T00:33:55.977Z,99.90
2023-02-09T00:36:22.652Z,99.90
2023-02-09T00:38:49.557Z,99.90
2023-02-09T00:41:16.542Z,99.90
2023-02-09T00:43:43.516Z,99.90
2023-02-09T00:46:10.432Z,99.90
2023-02-09T00:48:37.213Z,99.90
2023-02-09T00:51:03.973Z,99.90
2023-02-09T00:53:30.608Z,99.90
2023-02-09T00:55:57.329Z,99.90
2023-02-09T00:58:23.987Z,99.90
2023-02-09T01:00:50.698Z,99.90
2023-02-09T01:03:17.426Z,99.90
2023-02-09T01:05:44.133Z,99.90
2023-02-09T01:08:10.864Z,99.90
2023-02-09T01:10:38.570Z,99.90
2023-02-09T01:13:05.441Z,99.90
2023-02-09T01:15:32.194Z,99.90
2023-02-09T01:17:59.516Z,99.90
2023-02-09T01:20:26.952Z,99.90
2023-02-09T01:22:53.665Z,99.90
2023-02-09T01:25:20.365Z,99.90
2023-02-09T01:27:47.029Z,99.90
2023-02-09T01:30:14.176Z,99.90
2023-02-09T01:32:40.932Z,99.90
2023-02-09T01:35:08.128Z,99.90
2023-02-09T01:37:35.758Z,99.90
2023-02-09T01:40:03.727Z,99.90
2023-02-09T01:42:30.567Z,99.90
2023-02-09T01:45:41.284Z,99.90
2023-02-09T01:48:07.932Z,99.90
2023-02-09T01:50:39.281Z,99.90
2023-02-09T01:53:06.823Z,99.90
2023-02-09T01:55:38.193Z,99.90
2023-02-09T01:58:14.161Z,99.90
2023-02-09T02:00:40.998Z,99.90
2023-02-09T02:03:15.246Z,99.90
2023-02-09T02:05:44.449Z,99.90
2023-02-09T02:08:27.338Z,99.90
2023-02-09T02:10:54.266Z,99.90
2023-02-09T02:13:21.214Z,99.90
2023-02-09T02:16:06.810Z,99.90
2023-02-09T02:19:02.255Z,99.90
2023-02-09T02:21:50.201Z,99.90
2023-02-09T02:25:00.305Z,99.90
2023-02-09T02:27:44.574Z,99.90
2023-02-09T02:30:26.234Z,99.90
2023-02-09T02:33:04.490Z,99.90
2023-02-09T02:35:43.821Z,99.90
2023-02-09T02:38:19.101Z,99.90
2023-02-09T02:41:15.789Z,99.90
2023-02-09T02:43:51.789Z,99.90
2023-02-09T02:46:37.122Z,99.90
2023-02-09T02:49:22.947Z,99.90
2023-02-09T02:51:53.607Z,99.90
2023-02-09T02:54:27.700Z,99.90
2023-02-09T02:57:09.648Z,99.90
2023-02-09T02:59:45.264Z,99.90
2023-02-09T03:02:21.238Z,99.90
2023-02-09T03:04:52.598Z,99.90
2023-02-09T03:07:20.101Z,99.90
2023-02-09T03:09:55.526Z,99.90
2023-02-09T03:12:50.999Z,99.90
2023-02-09T03:15:37.168Z,99.90
2023-02-09T03:18:18.773Z,99.90
2023-02-09T03:20:54.642Z,99.90
2023-02-09T03:23:38.123Z,99.90
2023-02-09T03:26:11.623Z,99.90
2023-02-09T03:28:41.447Z,99.90
2023-02-09T03:31:09.132Z,99.90
2023-02-09T03:33:38.871Z,99.90
2023-02-09T03:36:12.668Z,99.90
2023-02-09T03:38:39.608Z,99.90
2023-02-09T03:41:07.947Z,99.90
2023-02-09T03:43:53.279Z,99.90
2023-02-09T03:46:20.001Z,99.90
2023-02-09T03:48:47.825Z,99.90
2023-02-09T03:51:14.425Z,99.90
2023-02-09T03:53:41.056Z,99.90
2023-02-09T03:56:09.206Z,99.90
2023-02-09T03:58:36.625Z,99.90
2023-02-09T04:01:07.577Z,99.90
2023-02-09T04:03:34.787Z,99.90
2023-02-09T04:06:01.883Z,99.90
2023-02-09T04:08:30.055Z,99.90
2023-02-09T04:10:57.560Z,99.90
2023-02-09T04:13:25.101Z,99.90
2023-02-09T04:15:52.081Z,99.90
2023-02-09T04:18:19.172Z,99.90
2023-02-09T04:20:46.112Z,99.90
2023-02-09T04:23:13.331Z,99.90
2023-02-09T04:25:39.974Z,99.90
2023-02-09T04:28:06.608Z,99.90
2023-02-09T04:30:33.357Z,99.90
2023-02-09T04:33:00.002Z,99.90
2023-02-09T04:35:26.613Z,99.90
2023-02-09T04:37:53.281Z,99.90
2023-02-09T04:40:19.901Z,99.90
2023-02-09T04:42:47.086Z,99.90
2023-02-09T04:45:13.735Z,99.90
2023-02-09T04:47:40.388Z,99.90
2023-02-09T04:50:07.141Z,99.90
2023-02-09T04:52:33.836Z,99.90
2023-02-09T04:55:00.508Z,99.90
2023-02-09T04:57:45.727Z,99.90
2023-02-09T05:00:12.987Z,99.90
2023-02-09T05:02:39.682Z,99.90
2023-02-09T05:05:06.491Z,99.90
2023-02-09T05:07:33.112Z,99.90
2023-02-09T05:09:59.779Z,99.90
2023-02-09T05:12:26.516Z,99.90
2023-02-09T05:14:53.125Z,99.90
2023-02-09T05:17:21.123Z,99.90
2023-02-09T05:19:48.684Z,99.90
2023-02-09T05:22:15.440Z,99.90
2023-02-09T05:24:42.074Z,99.90
2023-02-09T05:27:08.710Z,99.90
2023-02-09T05:29:35.360Z,99.90
2023-02-09T05:32:02.023Z,99.90
2023-02-09T05:34:28.617Z,99.90
2023-02-09T05:36:55.259Z,99.90
2023-02-09T05:39:21.987Z,99.90
2023-02-09T05:42:07.729Z,99.90
2023-02-09T05:44:34.370Z,99.90
2023-02-09T05:47:01.029Z,99.90
2023-02-09T05:49:27.625Z,99.90
2023-02-09T05:51:54.412Z,99.90
2023-02-09T05:54:21.052Z,99.90
2023-02-09T05:56:47.896Z,99.90
2023-02-09T05:59:14.503Z,99.90
2023-02-09T06:01:41.135Z,99.90
2023-02-09T06:04:09.087Z,99.90
2023-02-09T06:06:36.388Z,99.90
2023-02-09T06:09:03.847Z,99.90
2023-02-09T06:11:30.722Z,99.90
2023-02-09T06:13:57.311Z,99.90
2023-02-09T06:16:24.158Z,99.90
2023-02-09T06:18:50.767Z,99.90
2023-02-09T06:21:17.474Z,99.90
2023-02-09T06:23:44.107Z,99.90
2023-02-09T06:26:13.110Z,99.90
2023-02-09T06:28:40.004Z,99.90
2023-02-09T06:31:07.448Z,99.90
2023-02-09T06:33:34.628Z,99.90
2023-02-09T06:36:01.467Z,99.90
2023-02-09T06:38:31.194Z,99.90
2023-02-09T06:40:57.865Z,99.90
2023-02-09T06:43:24.546Z,99.90
2023-02-09T06:45:51.246Z,99.90
2023-02-09T06:48:17.907Z,99.90
2023-02-09T06:50:45.029Z,99.90
2023-02-09T06:53:12.118Z,99.90
2023-02-09T06:55:38.800Z,99.90
2023-02-09T06:58:05.456Z,99.90
2023-02-09T07:00:32.347Z,99.90
2023-02-09T07:02:59.625Z,99.90
2023-02-09T07:05:26.797Z,99.90
2023-02-09T07:07:53.473Z,99.90
2023-02-09T07:10:20.162Z,99.90
2023-02-09T07:12:46.864Z,99.90
2023-02-09T07:15:14.313Z,99.90
2023-02-09T07:17:42.200Z,99.90
2023-02-09T07:20:09.534Z,99.90
2023-02-09T07:22:36.262Z,99.90
2023-02-09T07:25:02.918Z,99.90
2023-02-09T07:27:29.516Z,99.90
2023-02-09T07:29:56.096Z,99.90
2023-02-09T07:32:23.878Z,99.90
2023-02-09T07:34:50.675Z,99.90
2023-02-09T07:37:17.503Z,99.90
2023-02-09T07:39:44.160Z,99.90
2023-02-09T07:42:10.818Z,99.90
2023-02-09T07:44:37.436Z,99.90
2023-02-09T07:47:04.151Z,99.90
2023-02-09T07:49:33.923Z,99.90
2023-02-09T07:52:00.691Z,99.90
2023-02-09T07:54:27.279Z,99.90
2023-02-09T07:56:56.052Z,99.90
2023-02-09T07:59:22.829Z,99.90
2023-02-09T08:01:49.749Z,99.90
2023-02-09T08:04:16.445Z,99.90
2023-02-09T08:06:45.812Z,99.90
2023-02-09T08:09:14.939Z,99.90
2023-02-09T08:11:53.492Z,99.90
2023-02-09T08:14:36.701Z,99.90
2023-02-09T08:17:28.012Z,99.90
2023-02-09T08:20:00.819Z,99.90
2023-02-09T08:22:30.049Z,99.90
2023-02-09T08:24:57.779Z,99.90
2023-02-09T08:27:24.699Z,99.90
2023-02-09T08:29:51.834Z,99.90
2023-02-09T08:32:18.489Z,99.90
2023-02-09T08:34:45.252Z,99.90
2023-02-09T08:37:11.884Z,99.90
2023-02-09T08:39:38.497Z,99.90
2023-02-09T08:42:05.138Z,99.90
2023-02-09T08:44:31.813Z,99.90
2023-02-09T08:46:58.613Z,99.90
2023-02-09T08:49:25.311Z,99.90
2023-02-09T08:51:52.308Z,99.90
2023-02-09T08:54:19.016Z,99.90
2023-02-09T08:56:45.630Z,99.90
2023-02-09T08:59:12.585Z,99.90
2023-02-09T09:01:40.389Z,99.90
2023-02-09T09:04:07.543Z,99.90
2023-02-09T09:06:34.352Z,99.90
2023-02-09T09:09:01.036Z,99.90
2023-02-09T09:11:28.082Z,99.90
2023-02-09T09:13:54.672Z,99.90
2023-02-09T09:16:22.792Z,99.90
2023-02-09T09:18:50.141Z,99.90
2023-02-09T09:21:18.241Z,99.90
2023-02-09T09:23:46.049Z,99.90
2023-02-09T09:26:12.933Z,99.90
2023-02-09T09:28:39.602Z,99.90
2023-02-09T09:31:14.875Z,99.90
2023-02-09T09:33:42.672Z,99.90
2023-02-09T09:36:10.869Z,99.90
2023-02-09T09:38:38.964Z,99.90
2023-02-09T09:41:16.671Z,99.90
2023-02-09T09:43:43.288Z,99.90
2023-02-09T09:46:17.368Z,99.60
2023-02-09T09:49:03.101Z,99.80
2023-02-09T09:51:40.609Z,99.60
2023-02-09T09:54:13.995Z,99.80
2023-02-09T09:56:41.622Z,99.90
2023-02-09T09:59:18.903Z,99.70
2023-02-09T10:01:46.730Z,99.20
2023-02-09T10:04:14.879Z,98.80
2023-02-09T10:06:43.925Z,99.00
2023-02-09T10:09:33.178Z,99.20
2023-02-09T10:12:32.819Z,99.00
2023-02-09T10:14:59.812Z,99.20
2023-02-09T10:17:26.473Z,99.00
2023-02-09T10:20:01.444Z,98.80
2023-02-09T10:22:28.052Z,99.40
2023-02-09T10:24:55.024Z,99.90
2023-02-09T10:27:21.650Z,98.70
2023-02-09T10:29:48.400Z,98.10
2023-02-09T10:32:22.109Z,98.70
2023-02-09T10:34:54.648Z,98.50
2023-02-09T10:37:33.007Z,98.90
2023-02-09T10:40:18.143Z,98.90
2023-02-09T10:43:06.947Z,99.20
2023-02-09T10:45:40.783Z,99.30
2023-02-09T10:48:13.245Z,99.30
2023-02-09T10:50:48.957Z,98.90
2023-02-09T10:53:27.864Z,99.40
2023-02-09T10:56:18.631Z,99.00
2023-02-09T10:59:02.390Z,98.90
2023-02-09T11:01:33.269Z,98.50
2023-02-09T11:04:06.701Z,98.60
2023-02-09T11:06:56.201Z,99.10
2023-02-09T11:09:38.443Z,99.10
2023-02-09T11:12:09.515Z,99.20
2023-02-09T11:14:36.130Z,99.20
2023-02-09T11:17:27.157Z,99.30
2023-02-09T11:20:12.510Z,98.90
2023-02-09T11:23:03.406Z,98.70
2023-02-09T11:25:49.661Z,99.10
2023-02-09T11:28:38.282Z,99.10
2023-02-09T11:31:07.810Z,98.90
2023-02-09T11:33:50.606Z,99.00
2023-02-09T11:36:50.268Z,99.20
2023-02-09T11:39:27.446Z,99.20
2023-02-09T11:42:23.175Z,99.90
2023-02-09T11:45:06.742Z,99.70
2023-02-09T11:48:05.026Z,99.60
2023-02-09T11:50:59.531Z,99.90
2023-02-09T11:53:59.817Z,99.80
2023-02-09T11:56:28.292Z,99.90
2023-02-09T11:58:57.708Z,99.90
2023-02-09T12:01:49.873Z,99.70
2023-02-09T12:04:43.553Z,99.80
2023-02-09T12:07:33.157Z,99.80
2023-02-09T12:10:18.441Z,99.60
2023-02-09T12:13:01.400Z,99.80
2023-02-09T12:15:37.784Z,99.90
2023-02-09T12:18:10.990Z,99.70
2023-02-09T12:20:37.557Z,99.60
2023-02-09T12:23:24.589Z,99.90
2023-02-09T12:25:59.637Z,99.90
2023-02-09T12:28:32.473Z,99.90
2023-02-09T12:31:01.862Z,99.90
2023-02-09T12:33:33.282Z,99.90
2023-02-09T12:36:10.545Z,99.90
2023-02-09T12:39:07.144Z,99.90
2023-02-09T12:41:33.738Z,99.90
2023-02-09T12:44:09.564Z,99.90
2023-02-09T12:46:45.525Z,99.80
2023-02-09T12:49:12.143Z,99.90
2023-02-09T12:51:51.110Z,99.90
2023-02-09T12:54:39.356Z,99.90
2023-02-09T12:57:15.073Z,99.90
2023-02-09T13:00:00.631Z,99.90
2023-02-09T13:02:52.928Z,99.90
2023-02-09T13:05:34.016Z,99.90
2023-02-09T13:08:18.862Z,99.90
2023-02-09T13:11:02.922Z,99.90
2023-02-09T13:13:33.045Z,99.90
2023-02-09T13:16:26.793Z,99.90
2023-02-09T13:19:12.336Z,99.90
2023-02-09T13:22:19.082Z,99.90
2023-02-09T13:25:10.622Z,99.90
2023-02-09T13:27:48.539Z,99.90
2023-02-09T13:30:35.694Z,99.90
2023-02-09T13:33:20.714Z,99.90
2023-02-09T13:36:24.174Z,99.90
2023-02-09T13:38:51.974Z,99.90
2023-02-09T13:41:29.464Z,99.90
2023-02-09T13:43:56.112Z,99.90
2023-02-09T13:46:36.965Z,99.90
2023-02-09T13:49:12.293Z,99.90
2023-02-09T13:51:39.034Z,99.90
2023-02-09T13:54:05.760Z,99.90
2023-02-09T13:56:34.575Z,99.90
2023-02-09T13:59:01.411Z,99.90
2023-02-09T14:01:31.453Z,99.90
2023-02-09T14:04:25.515Z,99.90
2023-02-09T14:07:03.022Z,99.90
2023-02-09T14:09:40.887Z,99.90
2023-02-09T14:12:15.447Z,99.90
2023-02-09T14:15:06.053Z,99.90
2023-02-09T14:17:35.214Z,99.90
2023-02-09T14:20:01.994Z,99.90
2023-02-09T14:22:39.400Z,99.90
2023-02-09T14:25:29.632Z,99.90
2023-02-09T14:27:57.763Z,99.90
2023-02-09T14:30:31.465Z,99.90
2023-02-09T14:33:00.359Z,99.90
2023-02-09T14:35:28.956Z,99.90
2023-02-09T14:37:58.488Z,99.90
2023-02-09T14:40:34.406Z,99.90
2023-02-09T14:43:22.095Z,99.90
2023-02-09T14:45:59.050Z,99.90
2023-02-09T14:48:28.160Z,99.90
2023-02-09T14:51:09.841Z,99.90
2023-02-09T14:53:36.635Z,99.90
2023-02-09T14:56:03.344Z,99.90
2023-02-09T14:58:31.877Z,99.90
2023-02-09T15:01:01.759Z,99.90
2023-02-09T15:03:28.888Z,99.90
2023-02-09T15:05:58.964Z,99.90
2023-02-09T15:08:28.506Z,99.90
2023-02-09T15:11:24.066Z,99.90
2023-02-09T15:13:58.747Z,99.90
2023-02-09T15:16:25.514Z,99.90
2023-02-09T15:18:52.154Z,99.90
2023-02-09T15:21:18.749Z,99.90
2023-02-09T15:23:45.363Z,99.90
2023-02-09T15:26:16.989Z,99.90
2023-02-09T15:28:43.663Z,99.90
2023-02-09T15:31:16.084Z,99.90
2023-02-09T15:33:43.351Z,99.90
2023-02-09T15:36:18.928Z,99.90
2023-02-09T15:38:45.878Z,99.90
2023-02-09T15:41:31.159Z,99.90
2023-02-09T15:44:17.054Z,99.90
2023-02-09T15:47:04.728Z,99.90
2023-02-09T15:49:31.913Z,99.90
2023-02-09T15:51:58.570Z,99.90
2023-02-09T15:54:31.634Z,99.90
2023-02-09T15:56:58.976Z,99.90
2023-02-09T15:59:25.604Z,99.90
2023-02-09T16:01:52.330Z,99.90
2023-02-09T16:04:19.610Z,99.90
2023-02-09T16:06:52.314Z,99.90
2023-02-09T16:09:22.818Z,99.90
2023-02-09T16:11:49.561Z,99.90
2023-02-09T16:14:21.187Z,99.90
2023-02-09T16:16:48.688Z,99.90
2023-02-09T16:19:16.836Z,99.90
2023-02-09T16:21:51.312Z,99.90
2023-02-09T16:24:26.561Z,99.90
2023-02-09T16:26:53.141Z,99.90
2023-02-09T16:29:19.758Z,99.90
2023-02-09T16:31:46.448Z,99.90
2023-02-09T16:34:15.546Z,99.90
2023-02-09T16:36:43.111Z,99.90
2023-02-09T16:39:17.095Z,99.90
2023-02-09T16:41:47.257Z,99.90
2023-02-09T16:44:30.380Z,99.90
2023-02-09T16:46:58.670Z,99.90
2023-02-09T16:49:34.954Z,99.90
2023-02-09T16:52:12.793Z,99.90
2023-02-09T16:54:46.643Z,99.90
2023-02-09T16:57:17.133Z,99.90
2023-02-09T16:59:44.270Z,99.90
2023-02-09T17:02:34.752Z,99.90
2023-02-09T17:05:07.774Z,99.90
2023-02-09T17:07:48.685Z,99.90
2023-02-09T17:10:21.721Z,99.90
2023-02-09T17:12:48.418Z,99.90
2023-02-09T17:15:28.887Z,99.90
2023-02-09T17:18:01.959Z,99.90
2023-02-09T17:20:37.205Z,99.90
2023-02-09T17:23:04.543Z,99.90
2023-02-09T17:25:31.344Z,99.90
2023-02-09T17:27:58.113Z,99.90
2023-02-09T17:30:24.888Z,99.90
2023-02-09T17:33:01.839Z,99.90
2023-02-09T17:35:55.888Z,99.90
2023-02-09T17:38:22.736Z,99.90
2023-02-09T17:40:50.778Z,99.90
2023-02-09T17:43:17.752Z,99.90
2023-02-09T17:45:49.484Z,99.90
2023-02-09T17:48:17.179Z,99.90
2023-02-09T17:50:44.832Z,99.90
2023-02-09T17:53:16.744Z,99.90
2023-02-09T17:55:45.075Z,99.90
2023-02-09T17:58:13.210Z,99.90
2023-02-09T18:00:41.018Z,99.90
2023-02-09T18:03:11.206Z,99.90
2023-02-09T18:05:40.355Z,99.90
2023-02-09T18:08:07.867Z,99.90
2023-02-09T18:10:34.667Z,99.90
2023-02-09T18:13:01.431Z,99.90
2023-02-09T18:15:34.989Z,99.90
2023-02-09T18:18:02.280Z,99.90
2023-02-09T18:20:33.199Z,99.90
2023-02-09T18:23:02.515Z,99.90
2023-02-09T18:25:37.902Z,99.90
2023-02-09T18:28:06.821Z,99.90
2023-02-09T18:30:36.033Z,99.90
2023-02-09T18:33:03.484Z,99.90
2023-02-09T18:35:35.137Z,99.90
2023-02-09T18:38:03.796Z,99.90
2023-02-09T18:40:32.108Z,99.90
2023-02-09T18:43:00.181Z,99.90
2023-02-09T18:45:27.273Z,99.90
2023-02-09T18:47:54.507Z,99.90
2023-02-09T18:50:25.839Z,99.90
2023-02-09T18:52:55.620Z,99.90
2023-02-09T18:55:29.276Z,99.90
2023-02-09T18:57:58.608Z,99.90
2023-02-09T19:00:26.454Z,99.90
2023-02-09T19:02:57.441Z,99.90
2023-02-09T19:05:26.654Z,99.90
2023-02-09T19:07:54.613Z,99.90
2023-02-09T19:10:22.009Z,99.90
2023-02-09T19:12:49.022Z,99.90
2023-02-09T19:15:22.406Z,99.90
2023-02-09T19:17:49.112Z,99.90
2023-02-09T19:20:21.695Z,99.90
2023-02-09T19:22:51.386Z,99.90
2023-02-09T19:25:20.045Z,99.90
2023-02-09T19:27:47.134Z,99.90
2023-02-09T19:30:16.462Z,99.90
2023-02-09T19:32:43.109Z,99.90
2023-02-09T19:35:09.786Z,99.90
2023-02-09T19:37:37.396Z,99.90
2023-02-09T19:40:06.960Z,99.90
2023-02-09T19:42:34.096Z,99.90
2023-02-09T19:45:00.837Z,99.90
2023-02-09T19:47:28.058Z,99.90
2023-02-09T19:49:56.548Z,99.90
2023-02-09T19:52:23.849Z,99.90
2023-02-09T19:54:50.808Z,99.90
2023-02-09T19:57:22.041Z,99.90
2023-02-09T19:59:48.958Z,99.90
2023-02-09T20:02:17.058Z,99.90
2023-02-09T20:04:45.772Z,99.90
2023-02-09T20:07:13.744Z,99.90
2023-02-09T20:09:42.084Z,99.90
2023-02-09T20:12:08.976Z,99.90
2023-02-09T20:14:35.573Z,99.90
2023-02-09T20:17:02.367Z,99.90
2023-02-09T20:19:29.187Z,99.90
2023-02-09T20:21:55.838Z,99.90
2023-02-09T20:24:23.554Z,99.90
2023-02-09T20:26:50.255Z,99.90
2023-02-09T20:29:17.031Z,99.90
2023-02-09T20:31:44.858Z,99.90
2023-02-09T20:34:14.078Z,99.90
2023-02-09T20:36:42.697Z,99.90
2023-02-09T20:39:13.397Z,99.90
2023-02-09T20:42:00.047Z,99.90
2023-02-09T20:44:45.523Z,99.90
2023-02-09T20:47:12.273Z,99.90
2023-02-09T20:49:40.587Z,99.90
2023-02-09T20:52:07.823Z,99.90
2023-02-09T20:54:34.958Z,99.90
2023-02-09T20:57:01.775Z,99.90
2023-02-09T20:59:28.781Z,99.90
2023-02-09T21:01:55.381Z,99.90
2023-02-09T21:04:26.496Z,99.90
2023-02-09T21:06:53.885Z,99.90
2023-02-09T21:09:26.047Z,99.90
2023-02-09T21:11:53.962Z,99.90
2023-02-09T21:14:32.302Z,99.90
2023-02-09T21:17:05.837Z,99.90
2023-02-09T21:19:34.379Z,99.90
2023-02-09T21:22:00.998Z,99.90
2023-02-09T21:24:27.628Z,99.90
2023-02-09T21:26:54.241Z,99.90
2023-02-09T21:29:21.240Z,99.90
2023-02-09T21:31:48.121Z,99.90
2023-02-09T21:34:16.571Z,99.90
2023-02-09T21:36:43.387Z,99.90
2023-02-09T21:39:10.232Z,99.90
2023-02-09T21:41:55.667Z,99.90
2023-02-09T21:44:22.457Z,99.90
2023-02-09T21:46:50.230Z,99.90
2023-02-09T21:49:16.993Z,99.90
2023-02-09T21:51:43.692Z,99.90
2023-02-09T21:54:15.633Z,99.90
2023-02-09T21:56:43.151Z,99.90
2023-02-09T21:59:09.921Z,99.90
2023-02-09T22:01:36.996Z,99.90
2023-02-09T22:04:04.001Z,99.90
2023-02-09T22:06:31.526Z,99.90
2023-02-09T22:09:00.389Z,99.90
2023-02-09T22:11:27.130Z,99.90
2023-02-09T22:13:53.937Z,99.90
2023-02-09T22:16:22.120Z,99.90
2023-02-09T22:18:48.751Z,99.90
2023-02-09T22:21:15.890Z,99.90
2023-02-09T22:23:42.615Z,99.90
2023-02-09T22:26:10.235Z,99.90
2023-02-09T22:28:37.004Z,99.90
2023-02-09T22:31:09.013Z,99.90
2023-02-09T22:33:35.997Z,99.90
2023-02-09T22:36:07.545Z,99.90
2023-02-09T22:38:35.427Z,99.90
2023-02-09T22:41:07.239Z,99.90
2023-02-09T22:43:34.780Z,99.90
2023-02-09T22:46:01.577Z,99.90
2023-02-09T22:48:28.357Z,99.90
2023-02-09T22:50:54.972Z,99.90
2023-02-09T22:53:21.618Z,99.90
2023-02-09T22:55:49.376Z,99.90
2023-02-09T22:58:16.298Z,99.90
2023-02-09T23:00:43.137Z,99.90
2023-02-09T23:03:09.885Z,99.90
2023-02-09T23:05:36.566Z,99.90
2023-02-09T23:08:03.504Z,99.90
2023-02-09T23:10:31.000Z,99.90
2023-02-09T23:12:57.743Z,99.90
2023-02-09T23:15:24.368Z,99.90
2023-02-09T23:17:51.048Z,99.90
2023-02-09T23:20:17.795Z,99.90
2023-02-09T23:22:44.436Z,99.90
2023-02-09T23:25:11.097Z,99.90
2023-02-09T23:27:37.765Z,99.90
2023-02-09T23:30:04.736Z,99.90
2023-02-09T23:32:31.332Z,99.90
2023-02-09T23:37:37.772Z,99.90
2023-02-09T23:40:05.322Z,99.90
2023-02-09T23:42:31.999Z,99.90
2023-02-09T23:44:58.636Z,99.90
2023-02-09T23:47:25.272Z,99.90
2023-02-09T23:49:51.913Z,99.90
2023-02-09T23:52:18.550Z,99.90
2023-02-09T23:54:45.167Z,99.90
2023-02-09T23:57:11.823Z,99.90
2023-02-09T23:59:38.847Z,99.90
